sensor_id;sensor_type;location;lat;lon;timestamp;P1;durP1;ratioP1;P2;durP2;ratioP2
31336;SDS011;22846;42.654;23.314;2024-03-25T00:01:06;10.23;;;7.80;;
31336;SDS011;22846;42.654;23.314;2024-03-25T00:03:32;10.27;;;7.78;;
31336;SDS011;22846;42.654;23.314;2024-03-25T00:05:58;11.13;;;7.82;;
31336;SDS011;22846;42.654;23.314;2024-03-25T00:08:24;8.80;;;7.47;;
31336;SDS011;22846;42.654;23.314;2024-03-25T00:10:49;11.05;;;7.20;;
31336;SDS011;22846;42.654;23.314;2024-03-25T00:13:15;9.02;;;6.82;;
31336;SDS011;22846;42.654;23.314;2024-03-25T00:15:40;9.40;;;7.15;;
31336;SDS011;22846;42.654;23.314;2024-03-25T00:18:06;9.57;;;6.80;;
31336;SDS011;22846;42.654;23.314;2024-03-25T00:20:32;8.68;;;6.63;;
31336;SDS011;22846;42.654;23.314;2024-03-25T00:22:57;9.52;;;6.70;;
31336;SDS011;22846;42.654;23.314;2024-03-25T00:25:23;10.05;;;6.05;;
31336;SDS011;22846;42.654;23.314;2024-03-25T00:27:48;10.73;;;6.32;;
31336;SDS011;22846;42.654;23.314;2024-03-25T00:30:13;8.27;;;6.18;;
31336;SDS011;22846;42.654;23.314;2024-03-25T00:32:39;7.60;;;5.60;;
31336;SDS011;22846;42.654;23.314;2024-03-25T00:35:04;10.18;;;5.95;;
31336;SDS011;22846;42.654;23.314;2024-03-25T00:37:30;9.45;;;5.90;;
31336;SDS011;22846;42.654;23.314;2024-03-25T00:39:56;8.55;;;5.93;;
31336;SDS011;22846;42.654;23.314;2024-03-25T00:42:21;7.95;;;5.47;;
31336;SDS011;22846;42.654;23.314;2024-03-25T00:44:47;7.93;;;5.63;;
31336;SDS011;22846;42.654;23.314;2024-03-25T00:47:12;7.47;;;5.43;;
31336;SDS011;22846;42.654;23.314;2024-03-25T00:49:56;8.65;;;5.50;;
31336;SDS011;22846;42.654;23.314;2024-03-25T00:52:21;7.25;;;5.60;;
31336;SDS011;22846;42.654;23.314;2024-03-25T00:54:47;7.00;;;5.38;;
31336;SDS011;22846;42.654;23.314;2024-03-25T00:57:12;6.07;;;4.43;;
31336;SDS011;22846;42.654;23.314;2024-03-25T00:59:38;6.18;;;4.88;;
31336;SDS011;22846;42.654;23.314;2024-03-25T01:02:04;6.45;;;4.95;;
31336;SDS011;22846;42.654;23.314;2024-03-25T01:04:29;6.93;;;4.57;;
31336;SDS011;22846;42.654;23.314;2024-03-25T01:06:55;7.15;;;5.18;;
31336;SDS011;22846;42.654;23.314;2024-03-25T01:09:20;7.43;;;4.78;;
31336;SDS011;22846;42.654;23.314;2024-03-25T01:11:47;5.57;;;4.40;;
31336;SDS011;22846;42.654;23.314;2024-03-25T01:14:12;7.25;;;4.50;;
31336;SDS011;22846;42.654;23.314;2024-03-25T01:16:38;6.15;;;4.28;;
31336;SDS011;22846;42.654;23.314;2024-03-25T01:19:03;7.43;;;4.63;;
31336;SDS011;22846;42.654;23.314;2024-03-25T01:21:29;6.43;;;4.50;;
31336;SDS011;22846;42.654;23.314;2024-03-25T01:23:55;6.03;;;3.97;;
31336;SDS011;22846;42.654;23.314;2024-03-25T01:26:21;7.85;;;4.30;;
31336;SDS011;22846;42.654;23.314;2024-03-25T01:28:47;6.85;;;4.47;;
31336;SDS011;22846;42.654;23.314;2024-03-25T01:31:12;6.50;;;4.28;;
31336;SDS011;22846;42.654;23.314;2024-03-25T01:33:38;4.53;;;3.70;;
31336;SDS011;22846;42.654;23.314;2024-03-25T01:36:04;4.85;;;3.88;;
31336;SDS011;22846;42.654;23.314;2024-03-25T01:38:30;5.22;;;3.90;;
31336;SDS011;22846;42.654;23.314;2024-03-25T01:41:06;4.60;;;3.50;;
31336;SDS011;22846;42.654;23.314;2024-03-25T01:43:32;4.38;;;3.35;;
31336;SDS011;22846;42.654;23.314;2024-03-25T01:45:57;3.88;;;3.35;;
31336;SDS011;22846;42.654;23.314;2024-03-25T01:48:23;5.18;;;3.53;;
31336;SDS011;22846;42.654;23.314;2024-03-25T01:50:48;4.63;;;3.65;;
31336;SDS011;22846;42.654;23.314;2024-03-25T01:53:14;4.75;;;3.47;;
31336;SDS011;22846;42.654;23.314;2024-03-25T01:55:40;4.85;;;3.42;;
31336;SDS011;22846;42.654;23.314;2024-03-25T01:58:06;4.13;;;3.30;;
31336;SDS011;22846;42.654;23.314;2024-03-25T02:00:32;5.97;;;3.38;;
31336;SDS011;22846;42.654;23.314;2024-03-25T02:02:58;4.45;;;3.35;;
31336;SDS011;22846;42.654;23.314;2024-03-25T02:05:24;3.65;;;2.92;;
31336;SDS011;22846;42.654;23.314;2024-03-25T02:07:49;6.40;;;3.10;;
31336;SDS011;22846;42.654;23.314;2024-03-25T02:10:16;3.95;;;3.10;;
31336;SDS011;22846;42.654;23.314;2024-03-25T02:12:42;2.88;;;2.55;;
31336;SDS011;22846;42.654;23.314;2024-03-25T02:15:09;3.70;;;2.90;;
31336;SDS011;22846;42.654;23.314;2024-03-25T02:17:35;3.10;;;2.67;;
31336;SDS011;22846;42.654;23.314;2024-03-25T02:20:01;3.42;;;2.80;;
31336;SDS011;22846;42.654;23.314;2024-03-25T02:22:30;3.33;;;2.42;;
31336;SDS011;22846;42.654;23.314;2024-03-25T02:24:56;4.15;;;2.63;;
31336;SDS011;22846;42.654;23.314;2024-03-25T02:27:24;3.03;;;2.65;;
31336;SDS011;22846;42.654;23.314;2024-03-25T02:29:50;3.95;;;2.67;;
31336;SDS011;22846;42.654;23.314;2024-03-25T02:32:15;2.78;;;2.30;;
31336;SDS011;22846;42.654;23.314;2024-03-25T02:34:43;3.80;;;2.63;;
31336;SDS011;22846;42.654;23.314;2024-03-25T02:37:11;3.80;;;2.70;;
31336;SDS011;22846;42.654;23.314;2024-03-25T02:39:37;3.35;;;2.60;;
31336;SDS011;22846;42.654;23.314;2024-03-25T02:42:02;3.45;;;2.47;;
31336;SDS011;22846;42.654;23.314;2024-03-25T02:44:28;3.05;;;2.25;;
31336;SDS011;22846;42.654;23.314;2024-03-25T02:46:55;3.22;;;2.10;;
31336;SDS011;22846;42.654;23.314;2024-03-25T02:49:22;3.38;;;2.33;;
31336;SDS011;22846;42.654;23.314;2024-03-25T02:51:47;3.60;;;2.10;;
31336;SDS011;22846;42.654;23.314;2024-03-25T02:54:12;2.50;;;2.10;;
31336;SDS011;22846;42.654;23.314;2024-03-25T02:56:39;2.83;;;2.00;;
31336;SDS011;22846;42.654;23.314;2024-03-25T02:59:05;3.22;;;2.28;;
31336;SDS011;22846;42.654;23.314;2024-03-25T03:01:30;3.08;;;2.10;;
31336;SDS011;22846;42.654;23.314;2024-03-25T03:03:56;2.20;;;1.77;;
31336;SDS011;22846;42.654;23.314;2024-03-25T03:06:21;2.97;;;2.00;;
31336;SDS011;22846;42.654;23.314;2024-03-25T03:08:47;2.78;;;2.00;;
31336;SDS011;22846;42.654;23.314;2024-03-25T03:11:13;2.88;;;2.13;;
31336;SDS011;22846;42.654;23.314;2024-03-25T03:13:38;2.65;;;2.10;;
31336;SDS011;22846;42.654;23.314;2024-03-25T03:16:04;2.08;;;1.80;;
31336;SDS011;22846;42.654;23.314;2024-03-25T03:18:29;2.75;;;2.08;;
31336;SDS011;22846;42.654;23.314;2024-03-25T03:20:55;2.72;;;2.28;;
31336;SDS011;22846;42.654;23.314;2024-03-25T03:23:21;3.30;;;2.20;;
31336;SDS011;22846;42.654;23.314;2024-03-25T03:25:47;2.53;;;2.03;;
31336;SDS011;22846;42.654;23.314;2024-03-25T03:28:12;2.20;;;1.65;;
31336;SDS011;22846;42.654;23.314;2024-03-25T03:30:40;2.42;;;1.63;;
31336;SDS011;22846;42.654;23.314;2024-03-25T03:33:05;2.10;;;1.83;;
31336;SDS011;22846;42.654;23.314;2024-03-25T03:35:32;1.95;;;1.75;;
31336;SDS011;22846;42.654;23.314;2024-03-25T03:38:00;1.80;;;1.63;;
31336;SDS011;22846;42.654;23.314;2024-03-25T03:40:26;2.00;;;1.60;;
31336;SDS011;22846;42.654;23.314;2024-03-25T03:42:51;2.55;;;1.40;;
31336;SDS011;22846;42.654;23.314;2024-03-25T03:45:17;1.70;;;1.50;;
31336;SDS011;22846;42.654;23.314;2024-03-25T03:47:42;2.58;;;1.77;;
31336;SDS011;22846;42.654;23.314;2024-03-25T03:50:08;1.83;;;1.50;;
31336;SDS011;22846;42.654;23.314;2024-03-25T03:52:34;1.65;;;1.45;;
31336;SDS011;22846;42.654;23.314;2024-03-25T03:55:00;1.73;;;1.30;;
31336;SDS011;22846;42.654;23.314;2024-03-25T03:57:25;1.80;;;1.30;;
31336;SDS011;22846;42.654;23.314;2024-03-25T03:59:53;2.38;;;1.70;;
31336;SDS011;22846;42.654;23.314;2024-03-25T04:02:19;1.92;;;1.30;;
31336;SDS011;22846;42.654;23.314;2024-03-25T04:04:45;2.22;;;1.50;;
31336;SDS011;22846;42.654;23.314;2024-03-25T04:07:10;2.30;;;1.40;;
31336;SDS011;22846;42.654;23.314;2024-03-25T04:09:36;2.42;;;1.50;;
31336;SDS011;22846;42.654;23.314;2024-03-25T04:12:01;1.58;;;1.48;;
31336;SDS011;22846;42.654;23.314;2024-03-25T04:14:26;1.85;;;1.35;;
31336;SDS011;22846;42.654;23.314;2024-03-25T04:16:52;1.65;;;1.20;;
31336;SDS011;22846;42.654;23.314;2024-03-25T04:19:18;2.78;;;1.02;;
31336;SDS011;22846;42.654;23.314;2024-03-25T04:21:44;1.30;;;1.20;;
31336;SDS011;22846;42.654;23.314;2024-03-25T04:24:10;1.20;;;1.00;;
31336;SDS011;22846;42.654;23.314;2024-03-25T04:26:35;1.08;;;0.98;;
31336;SDS011;22846;42.654;23.314;2024-03-25T04:29:00;1.85;;;1.33;;
31336;SDS011;22846;42.654;23.314;2024-03-25T04:31:26;1.55;;;1.30;;
31336;SDS011;22846;42.654;23.314;2024-03-25T04:33:51;1.92;;;1.17;;
31336;SDS011;22846;42.654;23.314;2024-03-25T04:36:16;1.30;;;1.20;;
31336;SDS011;22846;42.654;23.314;2024-03-25T04:38:42;1.70;;;1.42;;
31336;SDS011;22846;42.654;23.314;2024-03-25T04:41:07;2.38;;;1.13;;
31336;SDS011;22846;42.654;23.314;2024-03-25T04:43:33;1.40;;;1.15;;
31336;SDS011;22846;42.654;23.314;2024-03-25T04:46:00;1.25;;;0.98;;
31336;SDS011;22846;42.654;23.314;2024-03-25T04:48:26;1.67;;;1.10;;
31336;SDS011;22846;42.654;23.314;2024-03-25T04:50:51;1.23;;;0.98;;
31336;SDS011;22846;42.654;23.314;2024-03-25T04:53:17;1.30;;;0.95;;
31336;SDS011;22846;42.654;23.314;2024-03-25T04:55:42;1.27;;;1.17;;
31336;SDS011;22846;42.654;23.314;2024-03-25T04:58:08;2.03;;;1.00;;
31336;SDS011;22846;42.654;23.314;2024-03-25T05:00:34;1.85;;;1.30;;
31336;SDS011;22846;42.654;23.314;2024-03-25T05:02:59;3.08;;;1.10;;
31336;SDS011;22846;42.654;23.314;2024-03-25T05:05:25;1.50;;;0.88;;
31336;SDS011;22846;42.654;23.314;2024-03-25T05:07:50;1.50;;;1.10;;
31336;SDS011;22846;42.654;23.314;2024-03-25T05:10:15;0.85;;;0.85;;
31336;SDS011;22846;42.654;23.314;2024-03-25T05:12:41;2.30;;;1.02;;
31336;SDS011;22846;42.654;23.314;2024-03-25T05:15:06;2.05;;;1.00;;
31336;SDS011;22846;42.654;23.314;2024-03-25T05:17:31;1.83;;;1.10;;
31336;SDS011;22846;42.654;23.314;2024-03-25T05:19:57;2.75;;;0.80;;
31336;SDS011;22846;42.654;23.314;2024-03-25T05:22:22;3.75;;;1.10;;
31336;SDS011;22846;42.654;23.314;2024-03-25T05:24:48;6.57;;;1.45;;
31336;SDS011;22846;42.654;23.314;2024-03-25T05:27:13;4.20;;;1.02;;
31336;SDS011;22846;42.654;23.314;2024-03-25T05:29:38;2.30;;;1.00;;
31336;SDS011;22846;42.654;23.314;2024-03-25T05:32:04;3.38;;;1.38;;
31336;SDS011;22846;42.654;23.314;2024-03-25T05:34:29;5.30;;;1.20;;
31336;SDS011;22846;42.654;23.314;2024-03-25T05:36:56;3.92;;;1.30;;
31336;SDS011;22846;42.654;23.314;2024-03-25T05:39:22;2.95;;;1.10;;
31336;SDS011;22846;42.654;23.314;2024-03-25T05:41:48;5.65;;;1.52;;
31336;SDS011;22846;42.654;23.314;2024-03-25T05:44:13;11.23;;;2.10;;
31336;SDS011;22846;42.654;23.314;2024-03-25T05:46:39;5.93;;;1.90;;
31336;SDS011;22846;42.654;23.314;2024-03-25T05:49:05;4.63;;;1.55;;
31336;SDS011;22846;42.654;23.314;2024-03-25T05:51:31;2.45;;;1.40;;
31336;SDS011;22846;42.654;23.314;2024-03-25T05:54:00;5.55;;;1.50;;
31336;SDS011;22846;42.654;23.314;2024-03-25T05:56:25;3.95;;;1.30;;
31336;SDS011;22846;42.654;23.314;2024-03-25T05:58:58;3.25;;;1.50;;
31336;SDS011;22846;42.654;23.314;2024-03-25T06:01:24;2.83;;;1.50;;
31336;SDS011;22846;42.654;23.314;2024-03-25T06:03:50;4.35;;;1.58;;
31336;SDS011;22846;42.654;23.314;2024-03-25T06:06:15;4.70;;;1.80;;
31336;SDS011;22846;42.654;23.314;2024-03-25T06:08:41;8.40;;;1.77;;
31336;SDS011;22846;42.654;23.314;2024-03-25T06:11:06;6.30;;;1.58;;
31336;SDS011;22846;42.654;23.314;2024-03-25T06:13:31;7.85;;;1.67;;
31336;SDS011;22846;42.654;23.314;2024-03-25T06:15:58;5.35;;;1.35;;
31336;SDS011;22846;42.654;23.314;2024-03-25T06:18:23;3.47;;;1.15;;
31336;SDS011;22846;42.654;23.314;2024-03-25T06:20:49;3.05;;;1.30;;
31336;SDS011;22846;42.654;23.314;2024-03-25T06:25:49;2.13;;;1.30;;
31336;SDS011;22846;42.654;23.314;2024-03-25T06:28:15;5.53;;;1.00;;
31336;SDS011;22846;42.654;23.314;2024-03-25T06:30:40;5.78;;;1.40;;
31336;SDS011;22846;42.654;23.314;2024-03-25T06:33:24;5.15;;;1.20;;
31336;SDS011;22846;42.654;23.314;2024-03-25T06:36:08;10.20;;;2.28;;
31336;SDS011;22846;42.654;23.314;2024-03-25T06:38:34;3.15;;;1.38;;
31336;SDS011;22846;42.654;23.314;2024-03-25T06:40:59;8.65;;;2.70;;
31336;SDS011;22846;42.654;23.314;2024-03-25T06:43:24;7.90;;;2.92;;
31336;SDS011;22846;42.654;23.314;2024-03-25T06:45:50;8.85;;;3.70;;
31336;SDS011;22846;42.654;23.314;2024-03-25T06:48:15;6.85;;;3.67;;
31336;SDS011;22846;42.654;23.314;2024-03-25T06:50:41;9.52;;;4.00;;
31336;SDS011;22846;42.654;23.314;2024-03-25T06:53:07;6.15;;;3.75;;
31336;SDS011;22846;42.654;23.314;2024-03-25T06:55:32;6.38;;;3.38;;
31336;SDS011;22846;42.654;23.314;2024-03-25T06:57:58;7.22;;;3.33;;
31336;SDS011;22846;42.654;23.314;2024-03-25T07:00:23;4.60;;;2.60;;
31336;SDS011;22846;42.654;23.314;2024-03-25T07:02:49;3.97;;;2.50;;
31336;SDS011;22846;42.654;23.314;2024-03-25T07:05:14;5.88;;;2.72;;
31336;SDS011;22846;42.654;23.314;2024-03-25T07:07:40;5.50;;;2.13;;
31336;SDS011;22846;42.654;23.314;2024-03-25T07:10:05;5.85;;;2.38;;
31336;SDS011;22846;42.654;23.314;2024-03-25T07:12:31;6.30;;;2.05;;
31336;SDS011;22846;42.654;23.314;2024-03-25T07:14:56;4.40;;;2.45;;
31336;SDS011;22846;42.654;23.314;2024-03-25T07:17:23;3.38;;;2.17;;
31336;SDS011;22846;42.654;23.314;2024-03-25T07:19:48;4.55;;;2.55;;
31336;SDS011;22846;42.654;23.314;2024-03-25T07:22:14;4.07;;;2.20;;
31336;SDS011;22846;42.654;23.314;2024-03-25T07:24:39;2.45;;;1.80;;
31336;SDS011;22846;42.654;23.314;2024-03-25T07:27:04;4.80;;;2.38;;
31336;SDS011;22846;42.654;23.314;2024-03-25T07:29:30;5.50;;;2.92;;
31336;SDS011;22846;42.654;23.314;2024-03-25T07:31:56;5.25;;;2.33;;
31336;SDS011;22846;42.654;23.314;2024-03-25T07:34:21;5.32;;;2.65;;
31336;SDS011;22846;42.654;23.314;2024-03-25T07:36:47;8.23;;;2.28;;
31336;SDS011;22846;42.654;23.314;2024-03-25T07:39:14;3.35;;;2.20;;
31336;SDS011;22846;42.654;23.314;2024-03-25T07:41:39;3.53;;;2.50;;
31336;SDS011;22846;42.654;23.314;2024-03-25T07:44:05;4.03;;;2.45;;
31336;SDS011;22846;42.654;23.314;2024-03-25T07:46:30;3.60;;;2.00;;
31336;SDS011;22846;42.654;23.314;2024-03-25T07:48:56;4.82;;;2.90;;
31336;SDS011;22846;42.654;23.314;2024-03-25T07:51:22;6.20;;;2.40;;
31336;SDS011;22846;42.654;23.314;2024-03-25T07:53:47;2.75;;;2.17;;
31336;SDS011;22846;42.654;23.314;2024-03-25T07:56:14;4.00;;;2.30;;
31336;SDS011;22846;42.654;23.314;2024-03-25T07:58:40;3.65;;;2.00;;
31336;SDS011;22846;42.654;23.314;2024-03-25T08:01:06;4.05;;;2.15;;
31336;SDS011;22846;42.654;23.314;2024-03-25T08:03:31;5.13;;;2.40;;
31336;SDS011;22846;42.654;23.314;2024-03-25T08:05:56;4.25;;;2.10;;
31336;SDS011;22846;42.654;23.314;2024-03-25T08:08:22;4.45;;;2.00;;
31336;SDS011;22846;42.654;23.314;2024-03-25T08:10:47;2.60;;;2.00;;
31336;SDS011;22846;42.654;23.314;2024-03-25T08:13:13;3.13;;;2.10;;
31336;SDS011;22846;42.654;23.314;2024-03-25T08:15:38;3.45;;;2.10;;
31336;SDS011;22846;42.654;23.314;2024-03-25T08:18:03;2.63;;;1.83;;
31336;SDS011;22846;42.654;23.314;2024-03-25T08:20:29;3.25;;;2.28;;
31336;SDS011;22846;42.654;23.314;2024-03-25T08:22:54;4.82;;;2.20;;
31336;SDS011;22846;42.654;23.314;2024-03-25T08:25:20;2.58;;;2.10;;
31336;SDS011;22846;42.654;23.314;2024-03-25T08:27:45;2.67;;;1.80;;
31336;SDS011;22846;42.654;23.314;2024-03-25T08:30:11;2.40;;;1.90;;
31336;SDS011;22846;42.654;23.314;2024-03-25T08:32:36;3.00;;;2.30;;
31336;SDS011;22846;42.654;23.314;2024-03-25T08:35:02;2.75;;;2.20;;
31336;SDS011;22846;42.654;23.314;2024-03-25T08:37:27;2.17;;;1.60;;
31336;SDS011;22846;42.654;23.314;2024-03-25T08:39:53;4.20;;;2.13;;
31336;SDS011;22846;42.654;23.314;2024-03-25T08:42:18;2.40;;;1.73;;
31336;SDS011;22846;42.654;23.314;2024-03-25T08:44:44;3.33;;;1.70;;
31336;SDS011;22846;42.654;23.314;2024-03-25T08:47:09;2.28;;;1.80;;
31336;SDS011;22846;42.654;23.314;2024-03-25T08:49:34;2.65;;;1.70;;
31336;SDS011;22846;42.654;23.314;2024-03-25T08:52:18;1.95;;;1.73;;
31336;SDS011;22846;42.654;23.314;2024-03-25T08:54:44;2.42;;;1.70;;
31336;SDS011;22846;42.654;23.314;2024-03-25T08:57:09;2.10;;;1.77;;
31336;SDS011;22846;42.654;23.314;2024-03-25T08:59:35;2.40;;;1.70;;
31336;SDS011;22846;42.654;23.314;2024-03-25T09:02:00;2.47;;;1.70;;
31336;SDS011;22846;42.654;23.314;2024-03-25T09:04:26;1.95;;;1.73;;
31336;SDS011;22846;42.654;23.314;2024-03-25T09:06:51;2.95;;;1.90;;
31336;SDS011;22846;42.654;23.314;2024-03-25T09:09:17;1.60;;;1.33;;
31336;SDS011;22846;42.654;23.314;2024-03-25T09:12:01;2.00;;;1.80;;
31336;SDS011;22846;42.654;23.314;2024-03-25T09:14:29;1.90;;;1.65;;
31336;SDS011;22846;42.654;23.314;2024-03-25T09:16:55;2.00;;;1.52;;
31336;SDS011;22846;42.654;23.314;2024-03-25T09:19:20;1.83;;;1.60;;
31336;SDS011;22846;42.654;23.314;2024-03-25T09:21:45;2.55;;;1.70;;
31336;SDS011;22846;42.654;23.314;2024-03-25T09:24:11;2.40;;;1.60;;
31336;SDS011;22846;42.654;23.314;2024-03-25T09:26:36;1.98;;;1.55;;
31336;SDS011;22846;42.654;23.314;2024-03-25T09:29:02;2.35;;;1.60;;
31336;SDS011;22846;42.654;23.314;2024-03-25T09:31:28;1.88;;;1.50;;
31336;SDS011;22846;42.654;23.314;2024-03-25T09:33:53;1.95;;;1.60;;
31336;SDS011;22846;42.654;23.314;2024-03-25T09:36:20;2.47;;;1.48;;
31336;SDS011;22846;42.654;23.314;2024-03-25T09:38:45;2.60;;;1.80;;
31336;SDS011;22846;42.654;23.314;2024-03-25T09:41:11;1.98;;;1.65;;
31336;SDS011;22846;42.654;23.314;2024-03-25T09:43:42;2.33;;;1.70;;
31336;SDS011;22846;42.654;23.314;2024-03-25T09:46:10;2.33;;;1.58;;
31336;SDS011;22846;42.654;23.314;2024-03-25T09:48:36;2.38;;;1.92;;
31336;SDS011;22846;42.654;23.314;2024-03-25T09:51:02;2.85;;;1.70;;
31336;SDS011;22846;42.654;23.314;2024-03-25T09:53:28;2.92;;;1.70;;
31336;SDS011;22846;42.654;23.314;2024-03-25T09:55:54;2.47;;;1.70;;
31336;SDS011;22846;42.654;23.314;2024-03-25T09:58:21;2.28;;;1.67;;
31336;SDS011;22846;42.654;23.314;2024-03-25T10:00:47;2.00;;;1.58;;
31336;SDS011;22846;42.654;23.314;2024-03-25T10:03:13;2.88;;;1.70;;
31336;SDS011;22846;42.654;23.314;2024-03-25T10:05:39;1.85;;;1.63;;
31336;SDS011;22846;42.654;23.314;2024-03-25T10:08:05;1.85;;;1.63;;
31336;SDS011;22846;42.654;23.314;2024-03-25T10:10:30;1.65;;;1.42;;
31336;SDS011;22846;42.654;23.314;2024-03-25T10:12:56;2.33;;;1.65;;
31336;SDS011;22846;42.654;23.314;2024-03-25T10:15:21;1.83;;;1.70;;
31336;SDS011;22846;42.654;23.314;2024-03-25T10:17:49;1.70;;;1.50;;
31336;SDS011;22846;42.654;23.314;2024-03-25T10:20:15;1.77;;;1.40;;
31336;SDS011;22846;42.654;23.314;2024-03-25T10:22:44;1.50;;;1.40;;
31336;SDS011;22846;42.654;23.314;2024-03-25T10:25:27;1.73;;;1.55;;
31336;SDS011;22846;42.654;23.314;2024-03-25T10:30:20;1.65;;;1.50;;
31336;SDS011;22846;42.654;23.314;2024-03-25T10:32:46;2.13;;;1.60;;
31336;SDS011;22846;42.654;23.314;2024-03-25T10:35:11;1.80;;;1.50;;
31336;SDS011;22846;42.654;23.314;2024-03-25T10:37:38;2.40;;;1.58;;
31336;SDS011;22846;42.654;23.314;2024-03-25T10:40:04;1.90;;;1.40;;
31336;SDS011;22846;42.654;23.314;2024-03-25T10:42:32;2.88;;;1.48;;
31336;SDS011;22846;42.654;23.314;2024-03-25T10:44:59;1.65;;;1.52;;
31336;SDS011;22846;42.654;23.314;2024-03-25T10:47:27;2.40;;;1.50;;
31336;SDS011;22846;42.654;23.314;2024-03-25T10:49:56;1.40;;;1.30;;
31336;SDS011;22846;42.654;23.314;2024-03-25T10:52:24;1.58;;;1.33;;
31336;SDS011;22846;42.654;23.314;2024-03-25T10:54:51;3.00;;;1.40;;
31336;SDS011;22846;42.654;23.314;2024-03-25T10:57:16;1.65;;;1.30;;
31336;SDS011;22846;42.654;23.314;2024-03-25T10:59:42;1.50;;;1.40;;
31336;SDS011;22846;42.654;23.314;2024-03-25T11:02:08;1.83;;;1.45;;
31336;SDS011;22846;42.654;23.314;2024-03-25T11:04:35;2.78;;;1.70;;
31336;SDS011;22846;42.654;23.314;2024-03-25T11:07:14;1.50;;;1.25;;
31336;SDS011;22846;42.654;23.314;2024-03-25T11:09:40;1.50;;;1.40;;
31336;SDS011;22846;42.654;23.314;2024-03-25T11:12:07;1.55;;;1.35;;
31336;SDS011;22846;42.654;23.314;2024-03-25T11:14:36;2.10;;;1.60;;
31336;SDS011;22846;42.654;23.314;2024-03-25T11:17:01;2.78;;;1.60;;
31336;SDS011;22846;42.654;23.314;2024-03-25T11:19:27;1.75;;;1.50;;
31336;SDS011;22846;42.654;23.314;2024-03-25T11:21:54;1.45;;;1.30;;
31336;SDS011;22846;42.654;23.314;2024-03-25T11:24:31;2.97;;;1.50;;
31336;SDS011;22846;42.654;23.314;2024-03-25T11:26:56;1.75;;;1.40;;
31336;SDS011;22846;42.654;23.314;2024-03-25T11:29:22;1.90;;;1.67;;
31336;SDS011;22846;42.654;23.314;2024-03-25T11:31:50;2.92;;;1.60;;
31336;SDS011;22846;42.654;23.314;2024-03-25T11:34:18;1.52;;;1.42;;
31336;SDS011;22846;42.654;23.314;2024-03-25T11:36:43;1.73;;;1.33;;
31336;SDS011;22846;42.654;23.314;2024-03-25T11:39:09;1.50;;;1.40;;
31336;SDS011;22846;42.654;23.314;2024-03-25T11:41:41;1.70;;;1.60;;
31336;SDS011;22846;42.654;23.314;2024-03-25T11:44:07;1.67;;;1.58;;
31336;SDS011;22846;42.654;23.314;2024-03-25T11:46:35;2.53;;;1.55;;
31336;SDS011;22846;42.654;23.314;2024-03-25T11:49:07;2.42;;;1.67;;
31336;SDS011;22846;42.654;23.314;2024-03-25T11:51:37;2.25;;;1.40;;
31336;SDS011;22846;42.654;23.314;2024-03-25T11:54:06;1.52;;;1.33;;
31336;SDS011;22846;42.654;23.314;2024-03-25T11:56:31;2.60;;;1.60;;
31336;SDS011;22846;42.654;23.314;2024-03-25T11:58:58;2.05;;;1.30;;
31336;SDS011;22846;42.654;23.314;2024-03-25T12:01:25;1.70;;;1.60;;
31336;SDS011;22846;42.654;23.314;2024-03-25T12:03:51;1.33;;;1.20;;
31336;SDS011;22846;42.654;23.314;2024-03-25T12:06:16;2.85;;;1.25;;
31336;SDS011;22846;42.654;23.314;2024-03-25T12:08:41;2.92;;;1.35;;
31336;SDS011;22846;42.654;23.314;2024-03-25T12:11:27;1.60;;;1.23;;
31336;SDS011;22846;42.654;23.314;2024-03-25T12:13:53;2.15;;;1.40;;
31336;SDS011;22846;42.654;23.314;2024-03-25T12:16:19;3.13;;;1.70;;
31336;SDS011;22846;42.654;23.314;2024-03-25T12:18:44;1.65;;;1.20;;
31336;SDS011;22846;42.654;23.314;2024-03-25T12:21:10;1.40;;;1.30;;
31336;SDS011;22846;42.654;23.314;2024-03-25T12:23:36;1.88;;;1.30;;
31336;SDS011;22846;42.654;23.314;2024-03-25T12:26:02;1.83;;;1.52;;
31336;SDS011;22846;42.654;23.314;2024-03-25T12:28:28;1.42;;;1.33;;
31336;SDS011;22846;42.654;23.314;2024-03-25T12:30:56;1.77;;;1.20;;
31336;SDS011;22846;42.654;23.314;2024-03-25T12:33:22;6.97;;;2.15;;
31336;SDS011;22846;42.654;23.314;2024-03-25T12:35:48;7.15;;;2.03;;
31336;SDS011;22846;42.654;23.314;2024-03-25T12:38:24;7.13;;;2.35;;
31336;SDS011;22846;42.654;23.314;2024-03-25T12:40:51;7.90;;;2.20;;
31336;SDS011;22846;42.654;23.314;2024-03-25T12:43:18;16.95;;;2.50;;
31336;SDS011;22846;42.654;23.314;2024-03-25T12:45:43;10.63;;;2.78;;
31336;SDS011;22846;42.654;23.314;2024-03-25T12:48:09;18.67;;;2.90;;
31336;SDS011;22846;42.654;23.314;2024-03-25T12:50:35;18.10;;;3.42;;
31336;SDS011;22846;42.654;23.314;2024-03-25T12:53:01;20.42;;;3.00;;
31336;SDS011;22846;42.654;23.314;2024-03-25T12:55:28;11.60;;;3.30;;
31336;SDS011;22846;42.654;23.314;2024-03-25T12:57:54;21.17;;;3.40;;
31336;SDS011;22846;42.654;23.314;2024-03-25T13:00:19;13.68;;;3.20;;
31336;SDS011;22846;42.654;23.314;2024-03-25T13:02:45;26.23;;;4.03;;
31336;SDS011;22846;42.654;23.314;2024-03-25T13:05:10;14.27;;;3.63;;
31336;SDS011;22846;42.654;23.314;2024-03-25T13:07:36;22.55;;;4.03;;
31336;SDS011;22846;42.654;23.314;2024-03-25T13:10:01;20.77;;;3.78;;
31336;SDS011;22846;42.654;23.314;2024-03-25T13:12:28;18.55;;;3.90;;
31336;SDS011;22846;42.654;23.314;2024-03-25T13:14:54;14.27;;;3.75;;
31336;SDS011;22846;42.654;23.314;2024-03-25T13:17:19;27.85;;;4.72;;
31336;SDS011;22846;42.654;23.314;2024-03-25T13:19:44;24.65;;;5.05;;
31336;SDS011;22846;42.654;23.314;2024-03-25T13:22:10;29.63;;;5.32;;
31336;SDS011;22846;42.654;23.314;2024-03-25T13:24:35;25.10;;;4.80;;
31336;SDS011;22846;42.654;23.314;2024-03-25T13:27:00;35.50;;;5.05;;
31336;SDS011;22846;42.654;23.314;2024-03-25T13:29:26;23.23;;;4.78;;
31336;SDS011;22846;42.654;23.314;2024-03-25T13:31:51;25.08;;;4.60;;
31336;SDS011;22846;42.654;23.314;2024-03-25T13:34:17;29.52;;;4.97;;
31336;SDS011;22846;42.654;23.314;2024-03-25T13:36:42;20.38;;;4.57;;
31336;SDS011;22846;42.654;23.314;2024-03-25T13:39:07;26.38;;;4.78;;
31336;SDS011;22846;42.654;23.314;2024-03-25T13:41:33;23.30;;;4.65;;
31336;SDS011;22846;42.654;23.314;2024-03-25T13:43:59;20.92;;;3.97;;
31336;SDS011;22846;42.654;23.314;2024-03-25T13:46:25;20.50;;;4.40;;
31336;SDS011;22846;42.654;23.314;2024-03-25T13:48:50;17.90;;;4.05;;
31336;SDS011;22846;42.654;23.314;2024-03-25T13:51:16;19.48;;;3.67;;
31336;SDS011;22846;42.654;23.314;2024-03-25T13:53:41;20.05;;;3.95;;
31336;SDS011;22846;42.654;23.314;2024-03-25T13:56:07;22.98;;;4.63;;
31336;SDS011;22846;42.654;23.314;2024-03-25T13:58:32;22.33;;;4.82;;
31336;SDS011;22846;42.654;23.314;2024-03-25T14:00:57;30.80;;;4.60;;
31336;SDS011;22846;42.654;23.314;2024-03-25T14:03:24;25.63;;;4.72;;
31336;SDS011;22846;42.654;23.314;2024-03-25T14:05:49;19.45;;;4.00;;
31336;SDS011;22846;42.654;23.314;2024-03-25T14:08:14;23.15;;;4.25;;
31336;SDS011;22846;42.654;23.314;2024-03-25T14:10:40;26.38;;;4.00;;
31336;SDS011;22846;42.654;23.314;2024-03-25T14:13:07;21.83;;;4.10;;
31336;SDS011;22846;42.654;23.314;2024-03-25T14:15:33;17.95;;;3.85;;
31336;SDS011;22846;42.654;23.314;2024-03-25T14:17:58;16.00;;;3.75;;
31336;SDS011;22846;42.654;23.314;2024-03-25T14:20:24;23.20;;;3.72;;
31336;SDS011;22846;42.654;23.314;2024-03-25T14:22:49;20.27;;;3.78;;
31336;SDS011;22846;42.654;23.314;2024-03-25T14:25:14;16.15;;;3.90;;
31336;SDS011;22846;42.654;23.314;2024-03-25T14:27:40;19.20;;;4.18;;
31336;SDS011;22846;42.654;23.314;2024-03-25T14:30:06;19.42;;;4.13;;
31336;SDS011;22846;42.654;23.314;2024-03-25T14:32:32;16.05;;;3.40;;